KOPF/OPF METAR and TAF weather

Enter ICAO airport designator
Station Type Date Time Source
KOPF METAR 2019/08/18 08:53 UTC NOAA

KOPF 180853Z AUTO 00000KT 10SM CLR 26/24 A3006 RMK AO2 SLP180 T02610239 58010


Station Type Date Time Source
KOPF Decoded METAR 2019/08/18 08:53 UTC NOAA

Station name not available
Aug 18, 2019 - 04:53 AM EDT / 2019.08.18 0853 UTC
Wind: Calm:0
Visibility: 10 mile(s):0
Sky conditions: clear
Temperature: 79.0 F (26.1 C)
Dew Point: 75.0 F (23.9 C)
Relative Humidity: 87%
Pressure (altimeter): 30.06 in. Hg (1017 hPa)
Pressure tendency: 0.03 inches (1.0 hPa) lower than three hours ago
ob: KOPF 180853Z AUTO 00000KT 10SM CLR 26/24 A3006 RMK AO2 SLP180 T02610239 58010
cycle: 9

Station Type Date Time Source
KOPF TAF 2019/08/18 09:54 UTC NOAA

TAF
AMD KOPF 180853Z 1809/1906 VRB03KT P6SM FEW030
FM181400 14008KT P6SM FEW090 SCT250
FM181800 12012KT P6SM SCT035 BKN050
FM190100 VRB03KT P6SM SCT250

Example: see airport list